createdAt,value
2019-06-10T00:01:14.035Z,46.47
2019-06-10T00:03:44.291Z,46.45
2019-06-10T00:06:14.553Z,46.49
2019-06-10T00:08:44.822Z,46.58
2019-06-10T00:11:15.097Z,46.76
2019-06-10T00:13:45.351Z,46.71
2019-06-10T00:16:15.607Z,46.73
2019-06-10T00:18:45.965Z,46.77
2019-06-10T00:21:16.337Z,46.73
2019-06-10T00:23:46.603Z,46.47
2019-06-10T00:26:16.867Z,46.50
2019-06-10T00:28:47.112Z,46.50
2019-06-10T00:31:17.379Z,46.57
2019-06-10T00:33:47.630Z,46.65
2019-06-10T00:36:17.896Z,46.61
2019-06-10T00:38:48.151Z,46.55
2019-06-10T00:41:18.419Z,46.54
2019-06-10T00:43:48.674Z,46.44
2019-06-10T00:46:21.075Z,46.39
2019-06-10T00:48:51.266Z,46.32
2019-06-10T00:51:21.540Z,46.54
2019-06-10T00:53:51.838Z,46.40
2019-06-10T00:56:22.119Z,46.36
2019-06-10T00:58:52.378Z,46.44
2019-06-10T01:01:22.658Z,46.48
2019-06-10T01:03:52.925Z,46.52
2019-06-10T01:06:23.235Z,46.58
2019-06-10T01:08:53.558Z,46.54
2019-06-10T01:11:27.192Z,46.62
2019-06-10T01:13:55.867Z,46.66
2019-06-10T01:16:26.146Z,46.72
2019-06-10T01:18:56.424Z,46.76
2019-06-10T01:21:26.700Z,46.79
2019-06-10T01:23:57.020Z,46.84
2019-06-10T01:26:27.274Z,47.13
2019-06-10T01:28:57.544Z,47.20
2019-06-10T01:31:27.793Z,47.43
2019-06-10T01:33:58.058Z,47.74
2019-06-10T01:36:28.329Z,47.73
2019-06-10T01:38:58.590Z,47.57
2019-06-10T01:41:30.589Z,47.64
2019-06-10T01:44:01.788Z,47.72
2019-06-10T01:46:32.144Z,48.58
2019-06-10T01:49:02.414Z,48.31
2019-06-10T01:51:32.707Z,49.00
2019-06-10T01:54:02.957Z,49.95
2019-06-10T01:56:33.234Z,49.89
2019-06-10T01:59:03.498Z,50.18
2019-06-10T02:01:41.393Z,50.04
2019-06-10T02:04:14.909Z,50.49
2019-06-10T02:06:43.704Z,51.34
2019-06-10T02:09:15.530Z,51.94
2019-06-10T02:11:46.506Z,52.00
2019-06-10T02:14:19.044Z,51.84
2019-06-10T02:16:50.675Z,52.16
2019-06-10T02:19:22.980Z,52.44
2019-06-10T02:21:53.095Z,53.36
2019-06-10T02:24:23.615Z,53.73
2019-06-10T02:26:54.008Z,53.82
2019-06-10T02:29:24.290Z,54.23
2019-06-10T02:31:54.559Z,54.46
2019-06-10T02:34:27.340Z,54.87
2019-06-10T02:36:56.969Z,55.03
2019-06-10T02:39:33.726Z,55.05
2019-06-10T02:42:04.201Z,55.09
2019-06-10T02:44:37.614Z,55.15
2019-06-10T02:47:05.647Z,55.11
2019-06-10T02:49:52.627Z,55.25
2019-06-10T02:52:23.156Z,55.52
2019-06-10T02:54:53.432Z,55.65
2019-06-10T02:57:31.861Z,55.43
2019-06-10T02:59:56.000Z,55.41
2019-06-10T03:02:30.091Z,55.56
2019-06-10T03:04:58.279Z,55.81
2019-06-10T03:07:31.482Z,55.52
2019-06-10T03:10:04.374Z,55.63
2019-06-10T03:12:33.135Z,55.82
2019-06-10T03:15:04.208Z,55.86
2019-06-10T03:17:34.493Z,56.00
2019-06-10T03:20:06.084Z,56.07
2019-06-10T03:22:36.322Z,56.27
2019-06-10T03:25:08.050Z,56.33
2019-06-10T03:27:38.307Z,56.20
2019-06-10T03:30:15.278Z,55.93
2019-06-10T03:32:46.469Z,55.36
2019-06-10T03:35:13.665Z,55.34
2019-06-10T03:37:43.942Z,55.71
2019-06-10T03:40:14.702Z,55.58
2019-06-10T03:42:44.979Z,55.09
2019-06-10T03:45:17.425Z,54.96
2019-06-10T03:47:47.809Z,54.95
2019-06-10T03:50:19.216Z,55.02
2019-06-10T03:52:49.631Z,54.74
2019-06-10T03:55:22.983Z,54.51
2019-06-10T03:57:52.652Z,54.41
2019-06-10T04:00:25.430Z,54.53
2019-06-10T04:02:55.414Z,54.42
2019-06-10T04:05:27.004Z,54.60
2019-06-10T04:07:57.708Z,54.71
2019-06-10T04:10:29.535Z,54.73
2019-06-10T04:13:02.456Z,54.93
2019-06-10T04:15:32.570Z,55.44
2019-06-10T04:18:03.957Z,55.58
2019-06-10T04:20:34.586Z,55.62
2019-06-10T04:23:04.876Z,55.39
2019-06-10T04:25:36.623Z,55.32
2019-06-10T04:28:06.918Z,55.11
2019-06-10T04:30:37.182Z,54.68
2019-06-10T04:33:07.465Z,55.96
2019-06-10T04:35:37.745Z,55.74
2019-06-10T04:38:08.027Z,55.55
2019-06-10T04:40:38.278Z,55.55
2019-06-10T04:43:08.637Z,56.23
2019-06-10T04:45:38.911Z,56.31
2019-06-10T04:48:09.174Z,55.78
2019-06-10T04:50:45.567Z,55.88
2019-06-10T04:53:12.937Z,55.47
2019-06-10T04:55:43.335Z,55.08
2019-06-10T04:58:13.589Z,55.36
2019-06-10T05:00:43.935Z,55.23
2019-06-10T05:03:14.224Z,55.58
2019-06-10T05:05:44.494Z,55.40
2019-06-10T05:08:14.787Z,55.15
2019-06-10T05:10:45.119Z,54.76
2019-06-10T05:13:15.365Z,54.22
2019-06-10T05:15:45.840Z,53.63
2019-06-10T05:18:16.118Z,53.20
2019-06-10T05:20:54.909Z,52.44
2019-06-10T05:23:19.567Z,52.36
2019-06-10T05:25:52.273Z,51.49
2019-06-10T05:28:23.900Z,50.88
2019-06-10T05:30:53.966Z,50.57
2019-06-10T05:33:25.994Z,50.60
2019-06-10T05:35:56.236Z,50.92
2019-06-10T05:38:27.545Z,51.33
2019-06-10T05:40:58.485Z,50.97
2019-06-10T05:43:29.684Z,50.60
2019-06-10T05:46:02.591Z,50.35
2019-06-10T05:48:33.598Z,51.09
2019-06-10T05:51:06.752Z,51.42
2019-06-10T05:53:36.094Z,51.31
2019-06-10T05:56:06.397Z,50.87
2019-06-10T05:58:43.990Z,50.42
2019-06-10T06:01:14.242Z,49.37
2019-06-10T06:03:44.633Z,49.77
2019-06-10T06:06:15.004Z,48.85
2019-06-10T06:08:45.413Z,48.70
2019-06-10T06:11:15.667Z,48.08
2019-06-10T06:13:45.928Z,47.65
2019-06-10T06:16:16.203Z,47.63
2019-06-10T06:18:46.637Z,47.50
2019-06-10T06:21:25.756Z,47.92
2019-06-10T06:23:48.912Z,48.12
2019-06-10T06:26:19.198Z,48.57
2019-06-10T06:28:49.556Z,49.16
2019-06-10T06:31:20.004Z,49.69
2019-06-10T06:33:52.771Z,50.00
2019-06-10T06:36:22.813Z,50.16
2019-06-10T06:38:53.362Z,49.61
2019-06-10T06:41:23.759Z,49.81
2019-06-10T06:43:54.073Z,50.01
2019-06-10T06:46:24.346Z,50.11
2019-06-10T06:48:54.597Z,50.43
2019-06-10T06:51:35.941Z,50.53
2019-06-10T06:53:56.899Z,50.45
2019-06-10T06:56:27.183Z,50.33
2019-06-10T06:58:57.468Z,49.61
2019-06-10T07:01:27.934Z,48.28
2019-06-10T07:03:58.169Z,47.69
2019-06-10T07:06:30.459Z,46.40
2019-06-10T07:09:07.748Z,46.04
2019-06-10T07:11:39.006Z,44.77
2019-06-10T07:14:12.751Z,43.97
2019-06-10T07:16:46.003Z,44.39
2019-06-10T07:19:15.532Z,46.87
2019-06-10T07:22:05.364Z,47.23
2019-06-10T07:24:17.766Z,47.19
2019-06-10T07:26:54.075Z,46.07
2019-06-10T07:29:22.446Z,46.88
2019-06-10T07:31:53.489Z,46.71
2019-06-10T07:34:24.008Z,46.60
2019-06-10T07:36:54.301Z,46.21
2019-06-10T07:39:24.545Z,45.30
2019-06-10T07:41:54.838Z,45.14
2019-06-10T07:44:25.090Z,44.64
2019-06-10T07:46:55.387Z,43.24
2019-06-10T07:49:25.637Z,43.69
2019-06-10T07:52:09.586Z,43.89
2019-06-10T07:54:27.900Z,43.35
2019-06-10T07:56:58.167Z,43.71
2019-06-10T07:59:28.448Z,43.51
2019-06-10T08:01:58.706Z,43.05
2019-06-10T08:04:28.976Z,42.44
2019-06-10T08:06:59.239Z,41.72
2019-06-10T08:09:29.498Z,41.67
2019-06-10T08:12:03.420Z,41.53
2019-06-10T08:14:33.006Z,41.16
2019-06-10T08:17:03.358Z,40.68
2019-06-10T08:19:38.263Z,40.33
2019-06-10T08:22:05.714Z,40.48
2019-06-10T08:24:37.323Z,39.97
2019-06-10T08:27:07.805Z,40.06
2019-06-10T08:29:38.635Z,39.35
2019-06-10T08:32:09.022Z,38.97
2019-06-10T08:34:40.849Z,38.68
2019-06-10T08:37:13.641Z,38.53
2019-06-10T08:39:45.653Z,38.17
2019-06-10T08:42:15.344Z,37.59
2019-06-10T08:44:48.415Z,36.75
2019-06-10T08:47:17.679Z,36.20
2019-06-10T08:49:52.932Z,35.62
2019-06-10T08:52:23.738Z,34.45
2019-06-10T08:54:54.680Z,33.04
2019-06-10T08:57:25.066Z,31.93
2019-06-10T08:59:55.392Z,32.54
2019-06-10T09:02:25.702Z,33.70
2019-06-10T09:04:56.011Z,33.97
2019-06-10T09:07:26.267Z,33.13
2019-06-10T09:09:56.566Z,31.92
2019-06-10T09:12:32.901Z,31.39
2019-06-10T09:14:58.837Z,30.75
2019-06-10T09:17:29.139Z,31.10
2019-06-10T09:19:59.446Z,32.01
2019-06-10T09:22:29.682Z,32.84
2019-06-10T09:24:59.957Z,32.64
2019-06-10T09:27:32.681Z,31.99
2019-06-10T09:30:03.035Z,32.42
2019-06-10T09:32:33.496Z,32.87
2019-06-10T09:35:04.951Z,32.76
2019-06-10T09:37:35.405Z,32.70
2019-06-10T09:40:12.202Z,32.38
2019-06-10T09:42:46.274Z,32.51
2019-06-10T09:45:14.771Z,32.09
2019-06-10T09:47:48.513Z,31.66
2019-06-10T09:50:22.639Z,31.61
2019-06-10T09:52:56.987Z,32.25
2019-06-10T09:55:29.095Z,33.14
2019-06-10T09:58:00.023Z,33.47
2019-06-10T10:00:56.700Z,33.37
2019-06-10T10:03:24.233Z,32.54
2019-06-10T10:06:08.107Z,32.01
2019-06-10T10:08:26.511Z,31.95
2019-06-10T10:10:58.905Z,31.68
2019-06-10T10:13:28.836Z,31.51
2019-06-10T10:15:59.126Z,31.25
2019-06-10T10:18:29.398Z,31.50
2019-06-10T10:21:01.246Z,31.07
2019-06-10T10:23:49.135Z,29.93
2019-06-10T10:26:03.774Z,27.96
2019-06-10T10:28:34.042Z,26.18
2019-06-10T10:31:04.763Z,25.16
2019-06-10T10:33:35.225Z,23.73
2019-06-10T10:36:05.567Z,23.69
2019-06-10T10:38:35.836Z,24.29
2019-06-10T10:41:06.610Z,25.24
2019-06-10T10:43:37.970Z,25.72
2019-06-10T10:46:09.268Z,25.49
2019-06-10T10:48:39.739Z,25.39
2019-06-10T10:51:12.622Z,27.16
2019-06-10T10:53:46.547Z,27.72
2019-06-10T10:56:14.043Z,28.23
2019-06-10T10:58:45.894Z,27.68
2019-06-10T11:01:16.503Z,26.91
2019-06-10T11:03:48.238Z,26.74
2019-06-10T11:06:18.948Z,28.35
2019-06-10T11:08:49.975Z,28.47
2019-06-10T11:11:23.008Z,28.32
2019-06-10T11:13:56.879Z,28.18
2019-06-10T11:16:25.943Z,27.92
2019-06-10T11:18:57.693Z,26.80
2019-06-10T11:21:28.269Z,25.97
2019-06-10T11:24:01.404Z,26.54
2019-06-10T11:26:32.866Z,26.60
2019-06-10T11:29:03.097Z,25.59
2019-06-10T11:31:33.447Z,26.93
2019-06-10T11:34:03.696Z,27.29
2019-06-10T11:36:33.948Z,27.28
2019-06-10T11:39:05.711Z,27.85
2019-06-10T11:41:35.992Z,28.41
2019-06-10T11:44:06.682Z,28.07
2019-06-10T11:46:36.960Z,25.96
2019-06-10T11:49:07.216Z,21.47
2019-06-10T11:51:37.485Z,17.66
2019-06-10T11:54:07.737Z,15.90
2019-06-10T11:56:38.032Z,14.63
2019-06-10T11:59:10.113Z,14.71
2019-06-10T12:01:42.449Z,14.07
2019-06-10T12:04:12.843Z,13.43
2019-06-10T12:06:43.133Z,15.02
2019-06-10T12:09:13.856Z,16.66
2019-06-10T12:11:44.361Z,18.01
2019-06-10T12:14:15.005Z,19.12
2019-06-10T12:19:17.475Z,20.57
2019-06-10T12:21:47.762Z,21.21
2019-06-10T12:24:18.019Z,21.84
2019-06-10T12:26:48.291Z,22.44
2019-06-10T12:29:18.549Z,22.39
2019-06-10T12:31:48.846Z,23.03
2019-06-10T12:34:19.586Z,23.92
2019-06-10T12:36:50.491Z,24.64
2019-06-10T12:39:22.869Z,25.22
2019-06-10T12:41:57.570Z,25.29
2019-06-10T12:44:25.400Z,25.21
2019-06-10T12:47:02.106Z,24.31
2019-06-10T12:49:32.033Z,22.32
2019-06-10T12:52:07.025Z,19.95
2019-06-10T12:54:34.352Z,19.15
2019-06-10T12:57:06.842Z,18.59
2019-06-10T12:59:37.146Z,17.15
2019-06-10T13:02:18.940Z,16.82
2019-06-10T13:04:42.936Z,15.83
2019-06-10T13:07:15.411Z,15.31
2019-06-10T13:09:46.687Z,14.48
2019-06-10T13:12:16.951Z,14.96
2019-06-10T13:14:47.209Z,15.11
2019-06-10T13:17:17.466Z,16.79
2019-06-10T13:19:47.733Z,16.45
2019-06-10T13:22:18.019Z,16.20
2019-06-10T13:24:48.284Z,17.87
2019-06-10T13:27:18.545Z,17.36
2019-06-10T13:29:48.521Z,14.92
2019-06-10T13:32:18.506Z,12.92
2019-06-10T13:34:48.454Z,11.78
2019-06-10T13:37:18.426Z,11.37
2019-06-10T13:39:48.415Z,12.33
2019-06-10T13:42:18.409Z,12.93
2019-06-10T13:44:48.375Z,12.95
2019-06-10T13:47:18.339Z,12.26
2019-06-10T13:49:53.116Z,11.13
2019-06-10T13:52:23.378Z,12.12
2019-06-10T13:54:53.464Z,14.01
2019-06-10T13:57:23.454Z,15.37
2019-06-10T13:59:53.414Z,16.79
2019-06-10T14:02:24.896Z,17.95
2019-06-10T14:04:55.662Z,16.76
2019-06-10T14:07:26.181Z,13.87
2019-06-10T14:09:56.265Z,11.61
2019-06-10T14:12:26.328Z,12.14
2019-06-10T14:14:56.382Z,13.67
2019-06-10T14:17:26.353Z,15.13
2019-06-10T14:19:56.318Z,16.01
2019-06-10T14:22:26.587Z,16.63
2019-06-10T14:24:56.859Z,16.89
2019-06-10T14:27:26.836Z,14.55
2019-06-10T14:29:57.097Z,13.61
2019-06-10T14:32:27.092Z,14.26
2019-06-10T14:34:57.064Z,14.14
2019-06-10T14:37:36.166Z,13.88
2019-06-10T14:39:58.748Z,13.29
2019-06-10T14:42:28.777Z,13.63
2019-06-10T14:44:59.623Z,13.63
2019-06-10T14:47:29.575Z,13.46
2019-06-10T14:49:59.546Z,12.56
2019-06-10T14:52:31.968Z,11.94
2019-06-10T14:55:02.653Z,11.79
2019-06-10T14:57:33.472Z,11.54
2019-06-10T15:00:03.617Z,12.03
2019-06-10T15:02:33.648Z,12.51
2019-06-10T15:05:05.157Z,12.80
2019-06-10T15:07:35.191Z,12.96
2019-06-10T15:10:07.876Z,13.53
2019-06-10T15:12:37.833Z,13.74
2019-06-10T15:15:10.232Z,13.74
2019-06-10T15:17:42.902Z,13.72
2019-06-10T15:20:13.688Z,13.28
2019-06-10T15:22:43.677Z,13.09
2019-06-10T15:25:15.913Z,14.06
2019-06-10T15:27:45.850Z,16.11
2019-06-10T15:30:25.878Z,17.91
2019-06-10T15:32:48.386Z,18.97
2019-06-10T15:35:21.908Z,19.20
2019-06-10T15:37:52.817Z,19.89
2019-06-10T15:40:23.200Z,19.97
2019-06-10T15:42:53.528Z,19.39
2019-06-10T15:45:24.124Z,19.47
2019-06-10T15:47:54.400Z,19.54
2019-06-10T15:50:27.477Z,20.00
2019-06-10T15:52:56.642Z,20.92
2019-06-10T15:55:49.179Z,21.60
2019-06-10T15:57:58.981Z,22.28
2019-06-10T16:00:29.604Z,22.79
2019-06-10T16:03:02.345Z,23.56
2019-06-10T16:05:32.285Z,23.90
2019-06-10T16:08:02.653Z,24.36
2019-06-10T16:10:32.919Z,24.86
2019-06-10T16:13:03.510Z,25.33
2019-06-10T16:15:33.887Z,25.72
2019-06-10T16:18:04.141Z,26.13
2019-06-10T16:20:34.448Z,26.56
2019-06-10T16:23:04.716Z,27.18
2019-06-10T16:25:35.059Z,27.60
2019-06-10T16:28:05.310Z,27.94
2019-06-10T16:30:35.663Z,28.72
2019-06-10T16:33:05.941Z,29.88
2019-06-10T16:35:36.194Z,30.79
2019-06-10T16:38:06.450Z,31.24
2019-06-10T16:40:36.712Z,31.50
2019-06-10T16:43:06.966Z,31.94
2019-06-10T16:45:37.263Z,31.93
2019-06-10T16:48:07.488Z,31.79
2019-06-10T16:50:37.797Z,31.42
2019-06-10T16:53:08.040Z,31.37
2019-06-10T16:55:38.294Z,31.28
2019-06-10T16:58:08.650Z,31.92
2019-06-10T17:00:38.902Z,32.13
2019-06-10T17:03:09.322Z,32.44
2019-06-10T17:05:39.571Z,32.76
2019-06-10T17:08:12.527Z,32.84
2019-06-10T17:10:43.609Z,32.69
2019-06-10T17:13:15.635Z,32.72
2019-06-10T17:15:45.891Z,32.91
2019-06-10T17:18:16.152Z,33.25
2019-06-10T17:20:46.478Z,33.87
2019-06-10T17:23:24.685Z,34.23
2019-06-10T17:25:56.622Z,34.42
2019-06-10T17:28:31.756Z,34.58
2019-06-10T17:31:00.170Z,34.37
2019-06-10T17:33:35.121Z,34.60
2019-06-10T17:36:03.363Z,34.50
2019-06-10T17:38:34.629Z,34.25
2019-06-10T17:41:04.877Z,34.44
2019-06-10T17:43:35.123Z,34.52
2019-06-10T17:46:05.927Z,34.39
2019-06-10T17:48:36.179Z,34.50
2019-06-10T17:51:06.498Z,34.43
2019-06-10T17:53:36.812Z,34.32
2019-06-10T17:56:07.073Z,34.30
2019-06-10T17:58:50.223Z,34.52
2019-06-10T18:01:09.321Z,34.60
2019-06-10T18:03:40.101Z,34.63
2019-06-10T18:06:13.125Z,34.52
2019-06-10T18:08:42.471Z,34.41
2019-06-10T18:11:13.019Z,34.54
2019-06-10T18:13:43.359Z,34.63
2019-06-10T18:16:14.734Z,34.31
2019-06-10T18:18:44.990Z,34.37
2019-06-10T18:21:15.239Z,34.54
2019-06-10T18:23:45.542Z,34.49
2019-06-10T18:26:15.796Z,34.53
2019-06-10T18:29:00.245Z,34.52
2019-06-10T18:31:18.751Z,34.71
2019-06-10T18:33:49.290Z,34.83
2019-06-10T18:36:19.535Z,34.84
2019-06-10T18:38:52.516Z,35.00
2019-06-10T18:41:22.327Z,35.36
2019-06-10T18:43:52.820Z,35.86
2019-06-10T18:46:23.277Z,36.41
2019-06-10T18:48:53.792Z,36.53
2019-06-10T18:51:24.140Z,36.45
2019-06-10T18:53:54.391Z,36.25
2019-06-10T18:56:24.672Z,37.64
2019-06-10T18:58:54.907Z,38.64
2019-06-10T19:01:25.147Z,42.12
2019-06-10T19:03:55.437Z,43.37
2019-06-10T19:06:25.765Z,45.22
